Urubici, Brazil
Current Conditions -  °F | °C
As of 7:00 AM on Thursday 27 Nov 2014 (Local Time) from SBCM Reporting Station
Clear Clear  
Wind Chill: 68°   Ceiling: Unl
Heat Index: 68°   Visibility: 6mi
Dew Point: 66°   Wind: 0mph
Humidity: 94%   Direction: NA
Pressure: 29.88"   Gusts: NA
Location:  28.02°S, 49.59°W
Report Text: SBCM 270900Z 00000KT CAVOK 20/19 Q1012
Loading
Personal Weather Stations






























Interactive Weather Map New forecast layout! Learn more

10-Day Weather Forecast

Advertisements
Track Severe Weather on mobile